createdAt,value
2023-04-11T00:01:53.797Z,85.87
2023-04-11T00:04:34.445Z,85.80
2023-04-11T00:07:11.261Z,85.69
2023-04-11T00:09:50.853Z,85.56
2023-04-11T00:12:27.447Z,85.56
2023-04-11T00:15:05.255Z,85.45
2023-04-11T00:17:42.861Z,85.40
2023-04-11T00:20:21.049Z,85.40
2023-04-11T00:22:58.615Z,85.42
2023-04-11T00:25:37.448Z,85.57
2023-04-11T00:28:14.108Z,85.60
2023-04-11T00:30:50.789Z,85.61
2023-04-11T00:33:27.240Z,85.60
2023-04-11T00:36:03.869Z,85.61
2023-04-11T00:38:40.498Z,85.62
2023-04-11T00:41:17.161Z,85.56
2023-04-11T00:43:54.383Z,85.49
2023-04-11T00:46:31.157Z,85.49
2023-04-11T00:49:07.705Z,85.36
2023-04-11T00:51:44.155Z,85.40
2023-04-11T00:54:22.220Z,85.47
2023-04-11T00:56:59.280Z,85.52
2023-04-11T00:59:36.783Z,85.43
2023-04-11T01:02:13.162Z,85.26
2023-04-11T01:04:49.944Z,85.20
2023-04-11T01:07:27.864Z,85.18
2023-04-11T01:10:05.905Z,85.14
2023-04-11T01:12:45.533Z,85.21
2023-04-11T01:15:22.628Z,85.22
2023-04-11T01:18:02.311Z,85.24
2023-04-11T01:20:40.284Z,85.12
2023-04-11T01:23:23.597Z,85.19
2023-04-11T01:26:00.062Z,85.12
2023-04-11T01:28:36.580Z,85.16
2023-04-11T01:31:13.746Z,85.14
2023-04-11T01:33:50.391Z,85.20
2023-04-11T01:36:28.010Z,85.20
2023-04-11T01:39:05.347Z,85.20
2023-04-11T01:41:43.300Z,85.18
2023-04-11T01:44:21.557Z,85.21
2023-04-11T01:46:58.663Z,85.20
2023-04-11T01:49:35.847Z,85.12
2023-04-11T01:52:12.460Z,85.12
2023-04-11T01:54:48.983Z,85.17
2023-04-11T01:57:25.354Z,85.20
2023-04-11T02:00:01.729Z,85.28
2023-04-11T02:02:39.799Z,85.36
2023-04-11T02:05:16.796Z,85.45
2023-04-11T02:07:53.462Z,85.58
2023-04-11T02:10:30.258Z,85.78
2023-04-11T02:13:06.716Z,85.89
2023-04-11T02:15:43.028Z,86.02
2023-04-11T02:18:19.864Z,86.03
2023-04-11T02:20:56.113Z,86.10
2023-04-11T02:23:32.462Z,86.06
2023-04-11T02:26:09.578Z,86.00
2023-04-11T02:28:45.877Z,85.99
2023-04-11T02:31:23.181Z,85.97
2023-04-11T02:33:59.608Z,85.95
2023-04-11T02:36:38.099Z,85.89
2023-04-11T02:39:14.333Z,85.83
2023-04-11T02:41:51.248Z,85.83
2023-04-11T02:44:54.955Z,85.90
2023-04-11T02:47:32.977Z,85.92
2023-04-11T02:51:30.198Z,85.92
2023-04-11T02:54:07.750Z,85.87
2023-04-11T02:56:45.431Z,85.86
2023-04-11T02:59:21.942Z,85.89
2023-04-11T03:02:03.263Z,85.90
2023-04-11T03:04:39.960Z,85.97
2023-04-11T03:07:21.541Z,86.10
2023-04-11T03:09:57.956Z,86.20
2023-04-11T03:12:34.894Z,86.27
2023-04-11T03:15:17.798Z,86.38
2023-04-11T03:17:54.222Z,86.44
2023-04-11T03:20:31.090Z,86.68
2023-04-11T03:23:07.657Z,86.75
2023-04-11T03:25:44.741Z,86.80
2023-04-11T03:28:21.983Z,86.80
2023-04-11T03:30:58.522Z,86.82
2023-04-11T03:33:35.134Z,86.80
2023-04-11T03:36:13.491Z,86.80
2023-04-11T03:38:50.561Z,86.78
2023-04-11T03:41:28.036Z,86.70
2023-04-11T03:44:05.350Z,86.70
2023-04-11T03:46:41.961Z,86.70
2023-04-11T03:49:19.479Z,86.69
2023-04-11T03:51:59.515Z,86.63
2023-04-11T03:54:37.718Z,86.55
2023-04-11T03:57:14.656Z,86.50
2023-04-11T03:59:51.197Z,86.45
2023-04-11T04:02:27.843Z,86.50
2023-04-11T04:05:05.392Z,86.43
2023-04-11T04:07:43.438Z,86.30
2023-04-11T04:11:00.831Z,86.20
2023-04-11T04:13:40.279Z,86.16
2023-04-11T04:16:22.839Z,86.05
2023-04-11T04:19:02.934Z,86.01
2023-04-11T04:21:39.832Z,86.00
2023-04-11T04:24:16.188Z,85.97
2023-04-11T04:27:02.301Z,85.90
2023-04-11T04:29:47.415Z,85.88
2023-04-11T04:32:30.905Z,85.77
2023-04-11T04:35:14.206Z,85.76
2023-04-11T04:37:50.999Z,85.68
2023-04-11T04:40:40.168Z,85.63
2023-04-11T04:43:22.899Z,85.60
2023-04-11T04:46:41.455Z,85.68
2023-04-11T04:49:17.774Z,85.68
2023-04-11T04:51:54.041Z,85.44
2023-04-11T04:54:31.479Z,85.20
2023-04-11T04:57:07.979Z,85.00
2023-04-11T04:59:45.733Z,84.89
2023-04-11T05:02:23.345Z,84.67
2023-04-11T05:05:04.303Z,84.42
2023-04-11T05:07:42.721Z,84.13
2023-04-11T05:10:19.187Z,84.24
2023-04-11T05:12:59.276Z,84.26
2023-04-11T05:15:35.604Z,83.89
2023-04-11T05:18:12.239Z,83.38
2023-04-11T05:20:48.811Z,82.57
2023-04-11T05:23:30.044Z,81.77
2023-04-11T05:26:09.916Z,81.41
2023-04-11T05:28:46.445Z,81.04
2023-04-11T05:31:25.915Z,81.05
2023-04-11T05:34:03.591Z,80.75
2023-04-11T05:36:40.198Z,81.05
2023-04-11T05:39:16.472Z,81.13
2023-04-11T05:41:53.324Z,81.51
2023-04-11T05:44:29.700Z,81.51
2023-04-11T05:47:06.289Z,81.35
2023-04-11T05:49:42.703Z,81.40
2023-04-11T05:52:19.007Z,81.81
2023-04-11T05:54:55.252Z,81.69
2023-04-11T05:57:31.644Z,81.39
2023-04-11T06:00:13.082Z,81.30
2023-04-11T06:02:50.093Z,81.63
2023-04-11T06:05:27.248Z,81.91
2023-04-11T06:08:04.696Z,81.51
2023-04-11T06:10:41.140Z,81.77
2023-04-11T06:13:17.590Z,81.69
2023-04-11T06:15:54.186Z,81.19
2023-04-11T06:18:30.883Z,81.31
2023-04-11T06:21:07.699Z,81.14
2023-04-11T06:23:44.162Z,80.63
2023-04-11T06:26:21.175Z,80.58
2023-04-11T06:28:57.818Z,80.66
2023-04-11T06:31:34.523Z,80.61
2023-04-11T06:34:12.817Z,79.44
2023-04-11T06:36:49.978Z,78.61
2023-04-11T06:39:27.189Z,78.64
2023-04-11T06:42:04.072Z,78.80
2023-04-11T06:44:42.501Z,78.52
2023-04-11T06:47:19.113Z,78.44
2023-04-11T06:49:55.808Z,79.11
2023-04-11T06:52:32.428Z,78.91
2023-04-11T06:55:14.528Z,78.89
2023-04-11T06:57:51.093Z,78.36
2023-04-11T07:00:29.207Z,78.11
2023-04-11T07:03:08.666Z,77.79
2023-04-11T07:05:45.594Z,77.66
2023-04-11T07:08:22.289Z,76.02
2023-04-11T07:10:58.789Z,74.84
2023-04-11T07:13:35.307Z,73.66
2023-04-11T07:16:13.912Z,73.25
2023-04-11T07:18:50.639Z,70.29
2023-04-11T07:21:27.927Z,70.59
2023-04-11T07:24:05.253Z,69.69
2023-04-11T07:26:42.506Z,67.99
2023-04-11T07:29:20.633Z,66.71
2023-04-11T07:31:57.379Z,65.28
2023-04-11T07:34:33.921Z,65.44
2023-04-11T07:37:10.616Z,64.21
2023-04-11T07:39:47.679Z,63.47
2023-04-11T07:42:24.203Z,62.86
2023-04-11T07:45:00.614Z,61.96
2023-04-11T07:47:37.371Z,60.78
2023-04-11T07:50:22.191Z,60.58
2023-04-11T07:52:58.703Z,59.72
2023-04-11T07:55:35.229Z,59.33
2023-04-11T07:58:11.771Z,59.40
2023-04-11T08:00:50.654Z,58.99
2023-04-11T08:03:28.410Z,58.89
2023-04-11T08:06:04.984Z,58.47
2023-04-11T08:08:41.244Z,59.20
2023-04-11T08:11:17.819Z,58.85
2023-04-11T08:13:54.533Z,59.36
2023-04-11T08:16:31.423Z,59.35
2023-04-11T08:19:07.708Z,59.46
2023-04-11T08:21:44.381Z,59.74
2023-04-11T08:24:20.989Z,58.82
2023-04-11T08:26:57.664Z,59.49
2023-04-11T08:29:34.030Z,59.64
2023-04-11T08:32:10.787Z,59.70
2023-04-11T08:34:47.273Z,60.24
2023-04-11T08:37:23.957Z,61.07
2023-04-11T08:40:00.820Z,61.51
2023-04-11T08:42:37.952Z,61.33
2023-04-11T08:45:16.804Z,61.29
2023-04-11T08:47:53.566Z,62.14
2023-04-11T08:50:30.212Z,61.19
2023-04-11T08:53:08.440Z,62.07
2023-04-11T08:55:52.061Z,61.85
2023-04-11T08:58:29.393Z,62.14
2023-04-11T09:01:32.175Z,62.74
2023-04-11T09:04:11.715Z,63.05
2023-04-11T09:07:01.418Z,62.99
2023-04-11T09:09:39.408Z,63.56
2023-04-11T09:12:20.745Z,63.83
2023-04-11T09:14:57.711Z,63.93
2023-04-11T09:17:44.874Z,64.45
2023-04-11T09:20:30.512Z,64.20
2023-04-11T09:23:07.006Z,64.05
2023-04-11T09:25:50.870Z,64.21
2023-04-11T09:28:28.348Z,63.14
2023-04-11T09:31:04.912Z,62.06
2023-04-11T09:33:53.142Z,62.78
2023-04-11T09:36:31.226Z,62.79
2023-04-11T09:39:21.833Z,63.57
2023-04-11T09:41:58.412Z,63.99
2023-04-11T09:44:44.763Z,63.97
2023-04-11T09:47:21.392Z,63.84
2023-04-11T09:49:58.880Z,63.11
2023-04-11T09:52:36.933Z,63.19
2023-04-11T09:55:16.929Z,62.28
2023-04-11T09:57:55.836Z,61.40
2023-04-11T10:00:32.682Z,60.23
2023-04-11T10:03:09.128Z,59.39
2023-04-11T10:05:47.865Z,58.83
2023-04-11T10:08:33.608Z,58.43
2023-04-11T10:11:18.654Z,57.18
2023-04-11T10:13:56.026Z,57.84
2023-04-11T10:16:34.337Z,58.28
2023-04-11T10:19:28.496Z,57.40
2023-04-11T10:22:04.948Z,56.24
2023-04-11T10:24:41.356Z,56.49
2023-04-11T10:27:37.668Z,56.21
2023-04-11T10:30:16.734Z,56.02
2023-04-11T10:33:17.705Z,56.29
2023-04-11T10:36:06.373Z,56.09
2023-04-11T10:38:53.715Z,54.75
2023-04-11T10:41:35.745Z,54.32
2023-04-11T10:44:25.026Z,54.04
2023-04-11T10:47:01.695Z,54.51
2023-04-11T10:49:43.597Z,54.65
2023-04-11T10:52:27.262Z,54.90
2023-04-11T10:55:20.757Z,55.16
2023-04-11T10:58:19.910Z,54.73
2023-04-11T11:01:37.161Z,54.69
2023-04-11T11:04:19.561Z,54.43
2023-04-11T11:06:57.312Z,54.22
2023-04-11T11:09:35.223Z,53.76
2023-04-11T11:12:17.820Z,54.16
2023-04-11T11:14:54.991Z,54.40
2023-04-11T11:17:31.449Z,54.29
2023-04-11T11:20:16.563Z,54.30
2023-04-11T11:23:07.767Z,54.84
2023-04-11T11:25:53.108Z,54.62
2023-04-11T11:31:11.290Z,54.53
2023-04-11T11:33:47.729Z,53.57
2023-04-11T11:36:24.212Z,53.23
2023-04-11T11:39:00.686Z,53.80
2023-04-11T11:41:38.354Z,53.98
2023-04-11T11:44:26.696Z,52.80
2023-04-11T11:47:12.449Z,52.71
2023-04-11T11:49:54.330Z,52.97
2023-04-11T11:52:42.552Z,51.76
2023-04-11T11:55:37.003Z,50.74
2023-04-11T11:58:13.508Z,51.33
2023-04-11T12:00:53.067Z,50.79
2023-04-11T12:03:30.371Z,51.59
2023-04-11T12:06:09.061Z,51.14
2023-04-11T12:08:51.861Z,50.25
2023-04-11T12:11:28.219Z,51.12
2023-04-11T12:14:04.541Z,50.67
2023-04-11T12:16:41.993Z,50.17
2023-04-11T12:19:18.707Z,49.22
2023-04-11T12:21:55.186Z,48.65
2023-04-11T12:24:31.673Z,49.19
2023-04-11T12:27:08.923Z,50.20
2023-04-11T12:29:46.855Z,50.31
2023-04-11T12:32:24.168Z,50.02
2023-04-11T12:35:01.000Z,50.58
2023-04-11T12:37:37.840Z,49.65
2023-04-11T12:40:15.579Z,50.21
2023-04-11T12:42:57.263Z,50.00
2023-04-11T12:45:34.420Z,48.69
2023-04-11T12:48:12.451Z,50.14
2023-04-11T12:50:49.070Z,49.65
2023-04-11T12:53:25.530Z,49.51
2023-04-11T12:56:02.180Z,50.61
2023-04-11T12:58:38.937Z,49.82
2023-04-11T13:01:16.473Z,50.04
2023-04-11T13:03:53.236Z,50.68
2023-04-11T13:06:30.278Z,50.36
2023-04-11T13:09:07.921Z,50.51
2023-04-11T13:11:44.412Z,51.02
2023-04-11T13:14:20.789Z,50.53
2023-04-11T13:16:57.096Z,50.76
2023-04-11T13:19:33.577Z,51.48
2023-04-11T13:22:09.889Z,52.01
2023-04-11T13:24:46.251Z,52.71
2023-04-11T13:27:23.151Z,51.89
2023-04-11T13:29:59.492Z,52.90
2023-04-11T13:32:35.830Z,54.43
2023-04-11T13:35:13.727Z,54.41
2023-04-11T13:37:52.097Z,55.05
2023-04-11T13:40:28.598Z,55.61
2023-04-11T13:43:04.875Z,54.63
2023-04-11T13:45:41.346Z,54.71
2023-04-11T13:48:17.745Z,54.50
2023-04-11T13:50:57.494Z,54.79
2023-04-11T13:53:34.150Z,55.47
2023-04-11T13:56:11.974Z,55.68
2023-04-11T13:58:48.200Z,55.07
2023-04-11T14:01:24.681Z,55.58
2023-04-11T14:04:01.298Z,55.26
2023-04-11T14:06:38.061Z,55.87
2023-04-11T14:09:14.348Z,54.64
2023-04-11T14:11:50.638Z,55.34
2023-04-11T14:14:26.992Z,55.28
2023-04-11T14:17:03.403Z,55.31
2023-04-11T14:19:39.880Z,56.06
2023-04-11T14:22:16.343Z,56.10
2023-04-11T14:24:53.071Z,56.38
2023-04-11T14:27:29.365Z,55.76
2023-04-11T14:30:06.736Z,55.66
2023-04-11T14:32:43.589Z,56.48
2023-04-11T14:35:19.933Z,56.90
2023-04-11T14:37:57.324Z,56.80
2023-04-11T14:40:33.829Z,57.32
2023-04-11T14:43:10.182Z,57.85
2023-04-11T14:45:46.574Z,57.71
2023-04-11T14:48:22.921Z,57.88
2023-04-11T14:50:59.253Z,58.13
2023-04-11T14:53:36.049Z,58.39
2023-04-11T14:56:13.652Z,58.06
2023-04-11T14:58:49.945Z,57.73
2023-04-11T15:01:27.155Z,58.30
2023-04-11T15:04:03.790Z,58.67
2023-04-11T15:06:40.259Z,58.63
2023-04-11T15:09:20.274Z,58.45
2023-04-11T15:11:57.093Z,58.85
2023-04-11T15:14:33.436Z,58.58
2023-04-11T15:17:09.889Z,58.91
2023-04-11T15:19:46.460Z,59.21
2023-04-11T15:22:22.943Z,59.32
2023-04-11T15:24:59.322Z,59.72
2023-04-11T15:27:36.015Z,59.78
2023-04-11T15:30:15.370Z,59.31
2023-04-11T15:32:51.838Z,59.50
2023-04-11T15:35:28.439Z,59.75
2023-04-11T15:38:05.215Z,59.53
2023-04-11T15:40:41.906Z,59.61
2023-04-11T15:43:18.561Z,59.77
2023-04-11T15:45:56.578Z,59.99
2023-04-11T15:48:33.653Z,60.31
2023-04-11T15:51:17.330Z,60.61
2023-04-11T15:53:53.795Z,60.24
2023-04-11T15:56:30.528Z,60.47
2023-04-11T15:59:10.906Z,60.05
2023-04-11T16:01:47.306Z,59.92
2023-04-11T16:04:23.944Z,59.89
2023-04-11T16:07:00.701Z,60.27
2023-04-11T16:09:37.385Z,60.36
2023-04-11T16:12:13.876Z,60.54
2023-04-11T16:14:50.434Z,60.60
2023-04-11T16:17:26.846Z,61.09
2023-04-11T16:20:07.552Z,61.19
2023-04-11T16:22:45.286Z,61.38
2023-04-11T16:25:22.074Z,59.81
2023-04-11T16:27:59.523Z,59.83
2023-04-11T16:30:35.989Z,60.37
2023-04-11T16:33:13.326Z,61.71
2023-04-11T16:35:49.823Z,64.18
2023-04-11T16:38:27.357Z,64.87
2023-04-11T16:41:06.291Z,66.31
2023-04-11T16:43:44.284Z,68.59
2023-04-11T16:46:21.066Z,69.21
2023-04-11T16:48:57.654Z,70.63
2023-04-11T16:51:34.250Z,71.56
2023-04-11T16:54:13.579Z,71.72
2023-04-11T16:56:50.973Z,72.61
2023-04-11T16:59:30.514Z,73.48
2023-04-11T17:02:07.841Z,74.20
2023-04-11T17:04:44.741Z,74.70
2023-04-11T17:07:21.291Z,74.55
2023-04-11T17:09:58.681Z,74.15
2023-04-11T17:12:35.044Z,73.46
2023-04-11T17:15:14.272Z,73.74
2023-04-11T17:17:51.146Z,73.78
2023-04-11T17:20:29.029Z,73.83
2023-04-11T17:23:05.539Z,73.86
2023-04-11T17:25:42.561Z,73.93
2023-04-11T17:28:19.071Z,74.10
2023-04-11T17:30:56.433Z,74.42
2023-04-11T17:33:33.303Z,74.49
2023-04-11T17:36:12.539Z,75.04
2023-04-11T17:38:49.250Z,75.23
2023-04-11T17:41:25.961Z,75.61
2023-04-11T17:44:03.081Z,75.66
2023-04-11T17:46:39.613Z,75.61
2023-04-11T17:49:16.752Z,75.70
2023-04-11T17:51:58.877Z,75.78
2023-04-11T17:54:36.514Z,75.69
2023-04-11T17:57:13.142Z,75.71
2023-04-11T17:59:51.434Z,75.82
2023-04-11T18:02:29.638Z,75.96
2023-04-11T18:05:13.282Z,76.00
2023-04-11T18:08:03.501Z,76.06
2023-04-11T18:10:40.003Z,76.27
2023-04-11T18:13:16.586Z,76.46
2023-04-11T18:15:53.493Z,76.46
2023-04-11T18:18:31.340Z,76.58
2023-04-11T18:21:10.701Z,76.64
2023-04-11T18:23:47.672Z,76.84
2023-04-11T18:26:25.773Z,76.74
2023-04-11T18:29:02.247Z,76.97
2023-04-11T18:31:39.638Z,77.16
2023-04-11T18:34:17.402Z,77.21
2023-04-11T18:36:54.697Z,77.26
2023-04-11T18:39:32.217Z,77.35
2023-04-11T18:42:11.124Z,77.43
2023-04-11T18:44:51.031Z,77.60
2023-04-11T18:47:28.581Z,77.35
2023-04-11T18:50:10.403Z,77.34
2023-04-11T18:52:52.137Z,77.38
2023-04-11T18:55:32.148Z,77.35
2023-04-11T18:58:12.015Z,77.23
2023-04-11T19:00:52.875Z,77.33
2023-04-11T19:03:30.321Z,77.45
2023-04-11T19:06:08.976Z,77.52
2023-04-11T19:08:46.009Z,77.66
2023-04-11T19:11:22.965Z,77.90
2023-04-11T19:14:01.484Z,78.01
2023-04-11T19:16:39.780Z,78.28
2023-04-11T19:19:17.437Z,78.48
2023-04-11T19:21:54.708Z,78.56
2023-04-11T19:24:32.362Z,78.28
2023-04-11T19:27:09.683Z,77.65
2023-04-11T19:29:46.996Z,77.67
2023-04-11T19:32:24.136Z,77.68
2023-04-11T19:35:02.121Z,77.64
2023-04-11T19:37:39.647Z,77.58
2023-04-11T19:40:18.759Z,77.73
2023-04-11T19:42:56.237Z,78.01
2023-04-11T19:45:34.658Z,78.28
2023-04-11T19:48:12.406Z,78.30
2023-04-11T19:50:49.326Z,78.25
2023-04-11T19:53:26.454Z,78.27
2023-04-11T19:56:05.059Z,78.34
2023-04-11T19:58:42.906Z,78.35
2023-04-11T20:01:21.169Z,78.31
2023-04-11T20:03:59.163Z,78.09
2023-04-11T20:06:36.263Z,78.13
2023-04-11T20:09:13.245Z,78.14
2023-04-11T20:11:50.934Z,78.24
2023-04-11T20:14:27.573Z,78.33
2023-04-11T20:17:04.325Z,78.33
2023-04-11T20:19:41.747Z,78.39
2023-04-11T20:22:19.142Z,78.30
2023-04-11T20:24:56.075Z,78.28
2023-04-11T20:27:33.224Z,78.29
2023-04-11T20:30:14.319Z,78.38
2023-04-11T20:32:51.758Z,78.47
2023-04-11T20:35:28.708Z,78.49
2023-04-11T20:38:05.898Z,78.55
2023-04-11T20:40:42.751Z,78.50
2023-04-11T20:43:19.329Z,78.51
2023-04-11T20:45:55.941Z,78.44
2023-04-11T20:48:32.565Z,78.49
2023-04-11T20:51:09.870Z,78.54
2023-04-11T20:53:46.680Z,78.71
2023-04-11T20:56:23.826Z,78.88
2023-04-11T20:59:00.221Z,78.65
2023-04-11T21:01:37.112Z,78.64
2023-04-11T21:04:15.096Z,78.43
2023-04-11T21:06:52.120Z,78.30
2023-04-11T21:09:28.613Z,78.27
2023-04-11T21:12:05.170Z,78.22
2023-04-11T21:14:41.668Z,78.30
2023-04-11T21:17:18.084Z,78.31
2023-04-11T21:19:54.659Z,78.33
2023-04-11T21:22:31.240Z,78.30
2023-04-11T21:25:10.892Z,78.34
2023-04-11T21:27:48.116Z,78.42
2023-04-11T21:30:24.924Z,78.40
2023-04-11T21:33:01.661Z,78.41
2023-04-11T21:35:38.602Z,78.53
2023-04-11T21:38:16.634Z,78.75
2023-04-11T21:40:53.402Z,78.85
2023-04-11T21:43:29.948Z,79.02
2023-04-11T21:46:06.872Z,79.17
2023-04-11T21:48:43.377Z,79.31
2023-04-11T21:51:22.067Z,79.34
2023-04-11T21:53:58.715Z,79.40
2023-04-11T21:56:35.552Z,79.52
2023-04-11T21:59:12.138Z,79.67
2023-04-11T22:01:48.807Z,79.79
2023-04-11T22:04:26.753Z,79.80
2023-04-11T22:07:03.749Z,79.83
2023-04-11T22:09:47.182Z,79.86
2023-04-11T22:12:24.522Z,80.02
2023-04-11T22:15:01.676Z,80.21
2023-04-11T22:17:38.551Z,80.32
2023-04-11T22:20:18.227Z,80.44
2023-04-11T22:22:56.962Z,80.58
2023-04-11T22:25:34.717Z,80.70
2023-04-11T22:28:14.080Z,80.80
2023-04-11T22:30:50.744Z,80.95
2023-04-11T22:33:27.398Z,81.14
2023-04-11T22:36:04.015Z,81.21
2023-04-11T22:38:40.617Z,81.29
2023-04-11T22:41:22.070Z,81.45
2023-04-11T22:43:58.709Z,81.56
2023-04-11T22:46:38.787Z,81.57
2023-04-11T22:49:19.138Z,81.61
2023-04-11T22:51:59.595Z,81.58
2023-04-11T22:54:36.359Z,81.63
2023-04-11T22:57:12.697Z,81.34
2023-04-11T22:59:49.368Z,81.05
2023-04-11T23:02:27.645Z,80.98
2023-04-11T23:05:07.911Z,81.03
2023-04-11T23:07:44.301Z,81.11
2023-04-11T23:10:21.029Z,81.22
2023-04-11T23:12:57.424Z,81.25
2023-04-11T23:15:34.528Z,81.23
2023-04-11T23:18:11.371Z,81.16
2023-04-11T23:20:49.529Z,81.00
2023-04-11T23:23:25.874Z,80.98
2023-04-11T23:26:02.143Z,80.94
2023-04-11T23:28:38.851Z,80.87
2023-04-11T23:31:15.648Z,80.87
2023-04-11T23:33:53.992Z,80.95
2023-04-11T23:36:30.619Z,81.11
2023-04-11T23:39:06.927Z,81.13
2023-04-11T23:41:43.596Z,81.13
2023-04-11T23:44:19.863Z,81.13
2023-04-11T23:46:56.255Z,81.15
2023-04-11T23:49:32.603Z,81.10
2023-04-11T23:52:09.179Z,81.11
2023-04-11T23:54:45.436Z,81.21
2023-04-11T23:57:21.743Z,81.31
2023-04-11T23:59:58.505Z,81.47
